createdAt,value
2018-02-02T00:01:58.192Z,6.70
2018-02-02T00:04:25.716Z,7.63
2018-02-02T00:06:53.232Z,6.73
2018-02-02T00:09:20.747Z,7.50
2018-02-02T00:11:48.274Z,7.93
2018-02-02T00:14:16.550Z,6.63
2018-02-02T00:16:44.844Z,7.07
2018-02-02T00:19:12.355Z,7.37
2018-02-02T00:21:39.880Z,7.87
2018-02-02T00:24:07.405Z,7.40
2018-02-02T00:26:35.699Z,7.60
2018-02-02T00:29:03.203Z,8.47
2018-02-02T00:31:30.723Z,8.10
2018-02-02T00:33:58.230Z,8.10
2018-02-02T00:36:25.757Z,8.27
2018-02-02T00:38:53.264Z,7.47
2018-02-02T00:41:20.775Z,8.27
2018-02-02T00:43:48.271Z,7.93
2018-02-02T00:46:15.775Z,8.57
2018-02-02T00:48:43.318Z,9.30
2018-02-02T00:51:17.180Z,10.20
2018-02-02T00:53:44.797Z,7.83
2018-02-02T00:56:13.076Z,9.00
2018-02-02T00:58:41.378Z,9.10
2018-02-02T01:01:08.896Z,9.20
2018-02-02T01:03:36.414Z,8.63
2018-02-02T01:06:03.926Z,8.47
2018-02-02T01:08:32.213Z,8.63
2018-02-02T01:11:00.483Z,8.30
2018-02-02T01:13:28.795Z,9.63
2018-02-02T01:15:56.309Z,9.13
2018-02-02T01:18:24.603Z,9.13
2018-02-02T01:20:52.883Z,9.20
2018-02-02T01:23:20.421Z,8.57
2018-02-02T01:25:47.933Z,9.03
2018-02-02T01:28:15.459Z,8.00
2018-02-02T01:30:43.734Z,8.43
2018-02-02T01:33:12.032Z,8.17
2018-02-02T01:35:39.550Z,8.17
2018-02-02T01:38:07.076Z,9.50
2018-02-02T01:40:34.594Z,8.90
2018-02-02T01:43:02.866Z,7.50
2018-02-02T01:45:31.161Z,8.70
2018-02-02T01:48:10.460Z,7.83
2018-02-02T01:50:37.994Z,7.97
2018-02-02T01:53:05.499Z,8.10
2018-02-02T01:55:33.793Z,7.87
2018-02-02T01:58:01.299Z,7.30
2018-02-02T02:00:28.829Z,7.40
2018-02-02T02:02:56.349Z,8.70
2018-02-02T02:05:24.667Z,7.40
2018-02-02T02:07:52.173Z,7.30
2018-02-02T02:10:19.688Z,7.47
2018-02-02T02:12:47.192Z,7.70
2018-02-02T02:15:14.744Z,6.47
2018-02-02T02:17:42.255Z,7.73
2018-02-02T02:20:09.785Z,6.93
2018-02-02T02:22:38.055Z,7.47
2018-02-02T02:25:05.624Z,7.30
2018-02-02T02:27:33.904Z,7.10
2018-02-02T02:30:02.220Z,7.07
2018-02-02T02:32:29.737Z,6.83
2018-02-02T02:34:58.011Z,7.00
2018-02-02T02:37:25.527Z,7.50
2018-02-02T02:39:53.044Z,6.83
2018-02-02T02:42:21.338Z,6.73
2018-02-02T02:44:48.835Z,8.10
2018-02-02T02:47:16.403Z,7.33
2018-02-02T02:49:43.908Z,7.70
2018-02-02T02:52:12.188Z,6.50
2018-02-02T02:54:40.461Z,7.20
2018-02-02T02:57:08.755Z,8.47
2018-02-02T02:59:36.273Z,8.30
2018-02-02T03:02:03.812Z,8.40
2018-02-02T03:04:31.330Z,7.40
2018-02-02T03:06:58.871Z,7.27
2018-02-02T03:09:27.144Z,8.10
2018-02-02T03:11:55.414Z,7.47
2018-02-02T03:14:22.935Z,7.33
2018-02-02T03:16:50.434Z,7.93
2018-02-02T03:19:17.946Z,8.20
2018-02-02T03:21:45.452Z,8.10
2018-02-02T03:24:12.969Z,8.27
2018-02-02T03:26:40.492Z,7.67
2018-02-02T03:29:08.780Z,9.03
2018-02-02T03:31:36.281Z,8.60
2018-02-02T03:34:03.799Z,8.60
2018-02-02T03:36:31.309Z,7.53
2018-02-02T03:38:58.823Z,7.90
2018-02-02T03:41:26.322Z,8.10
2018-02-02T03:43:53.888Z,7.67
2018-02-02T03:46:21.391Z,8.43
2018-02-02T03:48:49.682Z,8.10
2018-02-02T03:51:17.198Z,9.60
2018-02-02T03:53:44.727Z,7.83
2018-02-02T03:56:12.231Z,8.03
2018-02-02T03:58:40.539Z,8.10
2018-02-02T04:01:08.053Z,7.40
2018-02-02T04:03:35.570Z,8.50
2018-02-02T04:06:03.088Z,7.30
2018-02-02T04:08:31.359Z,7.00
2018-02-02T04:10:58.939Z,8.17
2018-02-02T04:13:27.216Z,8.13
2018-02-02T04:15:55.508Z,8.47
2018-02-02T04:18:23.025Z,8.10
2018-02-02T04:20:50.539Z,8.10
2018-02-02T04:23:18.044Z,7.60
2018-02-02T04:25:45.567Z,8.13
2018-02-02T04:28:13.072Z,8.43
2018-02-02T04:30:40.597Z,8.23
2018-02-02T04:33:08.151Z,7.67
2018-02-02T04:35:52.439Z,7.57
2018-02-02T04:38:19.951Z,9.03
2018-02-02T04:40:47.466Z,7.83
2018-02-02T04:43:14.970Z,8.00
2018-02-02T04:45:42.493Z,7.70
2018-02-02T04:48:10.759Z,7.77
2018-02-02T04:50:38.283Z,7.17
2018-02-02T04:53:05.787Z,7.73
2018-02-02T04:55:33.335Z,8.30
2018-02-02T04:58:00.851Z,7.40
2018-02-02T05:00:28.355Z,8.00
2018-02-02T05:02:55.879Z,7.60
2018-02-02T05:05:23.379Z,7.40
2018-02-02T05:07:50.899Z,8.60
2018-02-02T05:10:18.400Z,8.17
2018-02-02T05:12:45.915Z,8.00
2018-02-02T05:15:13.420Z,8.43
2018-02-02T05:17:40.944Z,9.03
2018-02-02T05:20:08.452Z,8.30
2018-02-02T05:22:35.973Z,7.50
2018-02-02T05:25:03.467Z,6.77
2018-02-02T05:27:31.754Z,8.57
2018-02-02T05:30:00.032Z,9.27
2018-02-02T05:32:37.970Z,8.23
2018-02-02T05:35:05.473Z,8.00
2018-02-02T05:37:33.034Z,7.73
2018-02-02T05:40:00.550Z,8.10
2018-02-02T05:42:28.055Z,8.73
2018-02-02T05:44:55.572Z,7.40
2018-02-02T05:47:23.083Z,8.27
2018-02-02T05:49:51.379Z,7.83
2018-02-02T05:52:18.893Z,7.53
2018-02-02T05:54:46.406Z,7.47
2018-02-02T05:57:13.912Z,7.37
2018-02-02T05:59:41.436Z,7.50
2018-02-02T06:02:08.948Z,7.27
2018-02-02T06:04:36.470Z,7.27
2018-02-02T06:07:03.975Z,6.53
2018-02-02T06:09:32.263Z,7.40
2018-02-02T06:12:00.548Z,5.97
2018-02-02T06:14:28.847Z,6.83
2018-02-02T06:16:56.362Z,7.13
2018-02-02T06:19:35.627Z,7.17
2018-02-02T06:22:03.127Z,6.73
2018-02-02T06:24:30.679Z,7.57
2018-02-02T06:26:58.948Z,7.03
2018-02-02T06:29:26.463Z,6.90
2018-02-02T06:31:53.987Z,7.57
2018-02-02T06:34:22.255Z,5.90
2018-02-02T06:36:50.566Z,6.07
2018-02-02T06:39:18.087Z,6.60
2018-02-02T06:41:46.383Z,5.70
2018-02-02T06:44:13.899Z,5.27
2018-02-02T06:46:41.410Z,6.50
2018-02-02T06:49:08.932Z,6.27
2018-02-02T06:51:36.463Z,5.60
2018-02-02T06:54:03.966Z,5.30
2018-02-02T06:56:32.257Z,6.50
2018-02-02T06:59:00.808Z,5.93
2018-02-02T07:01:28.375Z,6.07
2018-02-02T07:03:55.883Z,5.63
2018-02-02T07:06:23.427Z,5.67
2018-02-02T07:08:50.961Z,6.10
2018-02-02T07:11:18.534Z,5.77
2018-02-02T07:13:46.806Z,4.90
2018-02-02T07:16:15.092Z,5.77
2018-02-02T07:18:43.380Z,4.83
2018-02-02T07:21:11.684Z,4.67
2018-02-02T07:23:39.211Z,4.60
2018-02-02T07:26:07.497Z,5.80
2018-02-02T07:28:35.080Z,5.70
2018-02-02T07:31:02.588Z,5.00
2018-02-02T07:33:30.119Z,5.33
2018-02-02T07:35:57.673Z,4.97
2018-02-02T07:38:25.227Z,4.97
2018-02-02T07:40:52.727Z,4.73
2018-02-02T07:43:20.265Z,5.60
2018-02-02T07:45:48.015Z,4.57
2018-02-02T07:48:15.656Z,4.53
2018-02-02T07:50:43.181Z,4.53
2018-02-02T07:53:11.502Z,5.30
2018-02-02T07:55:39.013Z,5.20
2018-02-02T07:58:06.547Z,4.80
2018-02-02T08:00:40.520Z,6.40
2018-02-02T08:03:08.057Z,7.37
2018-02-02T08:05:36.343Z,6.23
2018-02-02T08:08:04.631Z,6.63
2018-02-02T08:10:32.157Z,6.40
2018-02-02T08:12:59.666Z,7.10
2018-02-02T08:15:27.206Z,5.73
2018-02-02T08:17:55.483Z,6.43
2018-02-02T08:20:23.772Z,6.77
2018-02-02T08:22:51.279Z,6.20
2018-02-02T08:25:18.823Z,6.50
2018-02-02T08:27:46.354Z,5.70
2018-02-02T08:30:13.896Z,6.67
2018-02-02T08:32:41.407Z,6.77
2018-02-02T08:35:08.949Z,5.47
2018-02-02T08:37:36.467Z,5.70
2018-02-02T08:40:04.759Z,5.70
2018-02-02T08:42:32.305Z,5.30
2018-02-02T08:45:00.608Z,6.27
2018-02-02T08:47:28.124Z,5.27
2018-02-02T08:49:55.659Z,5.07
2018-02-02T08:52:23.176Z,6.93
2018-02-02T08:54:51.461Z,5.43
2018-02-02T08:57:19.010Z,5.20
2018-02-02T08:59:47.348Z,5.10
2018-02-02T09:02:14.860Z,5.37
2018-02-02T09:04:42.393Z,5.73
2018-02-02T09:07:10.731Z,5.33
2018-02-02T09:09:38.231Z,5.70
2018-02-02T09:12:05.758Z,5.33
2018-02-02T09:14:33.282Z,5.77
2018-02-02T09:17:00.819Z,5.40
2018-02-02T09:19:29.095Z,5.23
2018-02-02T09:21:56.918Z,5.20
2018-02-02T09:24:24.439Z,5.10
2018-02-02T09:26:52.733Z,5.37
2018-02-02T09:29:20.267Z,4.73
2018-02-02T09:31:48.588Z,4.03
2018-02-02T09:34:16.125Z,4.43
2018-02-02T09:36:43.668Z,4.27
2018-02-02T09:39:11.950Z,4.20
2018-02-02T09:41:40.278Z,4.33
2018-02-02T09:44:07.803Z,3.53
2018-02-02T09:46:35.324Z,4.53
2018-02-02T09:49:02.860Z,4.47
2018-02-02T09:51:30.405Z,3.60
2018-02-02T09:53:57.936Z,4.50
2018-02-02T09:56:25.466Z,5.00
2018-02-02T09:58:52.986Z,5.00
2018-02-02T10:01:20.500Z,4.97
2018-02-02T10:03:48.043Z,4.60
2018-02-02T10:06:15.595Z,4.10
2018-02-02T10:08:43.135Z,4.80
2018-02-02T10:11:10.655Z,3.80
2018-02-02T10:13:38.223Z,4.27
2018-02-02T10:16:05.755Z,3.47
2018-02-02T10:18:34.064Z,4.43
2018-02-02T10:21:01.586Z,3.60
2018-02-02T10:23:29.158Z,4.50
2018-02-02T10:25:57.453Z,3.83
2018-02-02T10:28:24.980Z,4.53
2018-02-02T10:30:52.490Z,4.37
2018-02-02T10:33:20.077Z,4.50
2018-02-02T10:35:47.602Z,3.97
2018-02-02T10:38:15.128Z,4.30
2018-02-02T10:40:42.657Z,3.70
2018-02-02T10:43:10.206Z,3.80
2018-02-02T10:45:37.765Z,3.50
2018-02-02T10:48:05.328Z,3.70
2018-02-02T10:50:32.855Z,4.20
2018-02-02T10:53:00.395Z,3.43
2018-02-02T10:55:28.814Z,3.87
2018-02-02T10:57:56.352Z,3.47
2018-02-02T11:00:23.886Z,3.73
2018-02-02T11:02:57.075Z,3.17
2018-02-02T11:05:24.607Z,3.53
2018-02-02T11:07:52.176Z,3.60
2018-02-02T11:10:19.727Z,3.27
2018-02-02T11:12:47.255Z,4.20
2018-02-02T11:15:14.796Z,3.60
2018-02-02T11:17:43.122Z,3.70
2018-02-02T11:20:10.626Z,3.27
2018-02-02T11:22:38.964Z,3.47
2018-02-02T11:25:06.515Z,2.90
2018-02-02T11:27:34.040Z,3.13
2018-02-02T11:30:01.599Z,3.17
2018-02-02T11:32:29.901Z,2.50
2018-02-02T11:34:57.475Z,3.37
2018-02-02T11:37:25.007Z,4.07
2018-02-02T11:39:52.547Z,3.27
2018-02-02T11:42:20.861Z,3.83
2018-02-02T11:44:48.371Z,3.10
2018-02-02T11:47:15.946Z,3.40
2018-02-02T11:49:44.222Z,3.10
2018-02-02T11:52:12.562Z,3.10
2018-02-02T11:54:40.106Z,3.80
2018-02-02T11:57:07.611Z,3.00
2018-02-02T11:59:35.175Z,2.57
2018-02-02T12:02:02.710Z,3.70
2018-02-02T12:04:30.248Z,2.70
2018-02-02T12:06:57.778Z,2.87
2018-02-02T12:09:26.087Z,3.03
2018-02-02T12:11:53.611Z,3.13
2018-02-02T12:14:21.899Z,3.30
2018-02-02T12:16:49.431Z,3.17
2018-02-02T12:19:17.003Z,2.57
2018-02-02T12:21:51.007Z,3.53
2018-02-02T12:24:23.199Z,3.70
2018-02-02T12:30:00.855Z,3.60
2018-02-02T12:32:34.005Z,3.20
2018-02-02T12:35:14.403Z,3.40
2018-02-02T12:37:41.908Z,3.03
2018-02-02T12:40:09.437Z,2.63
2018-02-02T12:42:36.948Z,2.50
2018-02-02T12:45:05.246Z,2.90
2018-02-02T12:47:35.556Z,2.60
2018-02-02T12:50:04.008Z,3.40
2018-02-02T12:52:32.304Z,2.60
2018-02-02T12:55:00.592Z,2.33
2018-02-02T12:57:28.143Z,3.27
2018-02-02T12:59:56.606Z,2.73
2018-02-02T13:02:24.140Z,2.90
2018-02-02T13:04:51.677Z,2.77
2018-02-02T13:07:19.220Z,2.90
2018-02-02T13:09:46.739Z,2.37
2018-02-02T13:12:14.275Z,3.20
2018-02-02T13:14:41.800Z,3.10
2018-02-02T13:17:09.388Z,2.90
2018-02-02T13:19:36.900Z,2.80
2018-02-02T13:22:05.195Z,3.37
2018-02-02T13:24:32.725Z,3.30
2018-02-02T13:27:01.066Z,3.00
2018-02-02T13:29:28.590Z,3.53
2018-02-02T13:31:56.111Z,3.17
2018-02-02T13:34:23.657Z,2.90
2018-02-02T13:36:51.215Z,2.73
2018-02-02T13:39:18.783Z,2.70
2018-02-02T13:41:46.336Z,2.70
2018-02-02T13:44:13.886Z,3.03
2018-02-02T13:46:41.412Z,2.57
2018-02-02T13:49:08.935Z,2.70
2018-02-02T13:51:36.450Z,3.20
2018-02-02T13:54:04.780Z,2.70
2018-02-02T13:56:32.303Z,3.07
2018-02-02T13:58:59.871Z,2.90
2018-02-02T14:01:27.423Z,3.10
2018-02-02T14:03:54.957Z,2.80
2018-02-02T14:06:23.262Z,2.90
2018-02-02T14:08:50.778Z,2.83
2018-02-02T14:11:18.339Z,2.90
2018-02-02T14:13:45.878Z,2.50
2018-02-02T14:16:13.429Z,3.80
2018-02-02T14:18:40.947Z,2.80
2018-02-02T14:21:09.253Z,3.20
2018-02-02T14:23:36.839Z,2.80
2018-02-02T14:26:04.395Z,3.00
2018-02-02T14:28:32.703Z,4.10
2018-02-02T14:31:00.248Z,3.40
2018-02-02T14:33:27.759Z,3.53
2018-02-02T14:35:55.315Z,3.07
2018-02-02T14:38:22.884Z,3.73
2018-02-02T14:40:50.431Z,3.53
2018-02-02T14:43:18.788Z,3.80
2018-02-02T14:45:46.352Z,3.10
2018-02-02T14:48:14.659Z,3.70
2018-02-02T14:50:42.175Z,3.33
2018-02-02T14:53:09.736Z,2.80
2018-02-02T14:55:37.255Z,3.90
2018-02-02T14:58:04.779Z,3.20
2018-02-02T15:00:33.063Z,3.00
2018-02-02T15:03:01.395Z,3.50
2018-02-02T15:05:28.933Z,3.17
2018-02-02T15:07:56.491Z,3.53
2018-02-02T15:10:24.003Z,3.40
2018-02-02T15:12:52.313Z,3.30
2018-02-02T15:15:19.830Z,3.00
2018-02-02T15:17:47.347Z,2.57
2018-02-02T15:20:14.867Z,3.63
2018-02-02T15:22:58.040Z,3.80
2018-02-02T15:25:26.349Z,3.70
2018-02-02T15:27:53.859Z,3.33
2018-02-02T15:30:21.400Z,4.00
2018-02-02T15:32:49.666Z,3.50
2018-02-02T15:35:17.189Z,3.40
2018-02-02T15:37:44.699Z,4.07
2018-02-02T15:40:12.235Z,3.80
2018-02-02T15:42:39.761Z,4.63
2018-02-02T15:45:07.293Z,3.70
2018-02-02T15:47:34.816Z,4.37
2018-02-02T15:50:02.349Z,3.77
2018-02-02T15:52:29.895Z,3.20
2018-02-02T15:54:57.423Z,3.80
2018-02-02T15:57:24.923Z,4.17
2018-02-02T15:59:52.452Z,3.90
2018-02-02T16:02:19.978Z,4.10
2018-02-02T16:04:47.486Z,4.37
2018-02-02T16:07:15.004Z,4.20
2018-02-02T16:09:42.506Z,4.93
2018-02-02T16:12:10.133Z,4.60
2018-02-02T16:14:38.421Z,4.90
2018-02-02T16:17:06.708Z,4.50
2018-02-02T16:19:34.228Z,4.60
2018-02-02T16:22:01.747Z,4.20
2018-02-02T16:24:29.257Z,4.40
2018-02-02T16:26:56.812Z,4.20
2018-02-02T16:29:24.319Z,4.40
2018-02-02T16:31:51.839Z,4.70
2018-02-02T16:34:19.341Z,5.10
2018-02-02T16:36:46.852Z,4.10
2018-02-02T16:39:14.417Z,4.47
2018-02-02T16:41:41.931Z,4.67
2018-02-02T16:44:09.452Z,3.60
2018-02-02T16:46:36.955Z,4.13
2018-02-02T16:49:04.484Z,4.60
2018-02-02T16:51:32.045Z,5.00
2018-02-02T16:53:59.559Z,4.20
2018-02-02T16:56:27.064Z,4.37
2018-02-02T16:58:55.107Z,3.80
2018-02-02T17:01:22.603Z,3.63
2018-02-02T17:03:50.116Z,4.20
2018-02-02T17:06:17.611Z,4.40
2018-02-02T17:08:45.130Z,4.20
2018-02-02T17:11:12.635Z,3.80
2018-02-02T17:13:40.151Z,3.57
2018-02-02T17:16:07.647Z,4.87
2018-02-02T17:18:35.163Z,4.17
2018-02-02T17:21:02.717Z,3.80
2018-02-02T17:23:30.262Z,4.23
2018-02-02T17:25:57.755Z,4.67
2018-02-02T17:28:25.963Z,5.37
2018-02-02T17:30:54.257Z,4.27
2018-02-02T17:33:22.522Z,4.30
2018-02-02T17:35:50.039Z,5.80
2018-02-02T17:38:17.549Z,6.20
2018-02-02T17:40:45.067Z,6.87
2018-02-02T17:43:12.562Z,8.00
2018-02-02T17:45:40.807Z,7.37
2018-02-02T17:48:08.304Z,8.43
2018-02-02T17:50:35.819Z,8.30
2018-02-02T17:53:03.360Z,10.10
2018-02-02T17:55:30.946Z,12.87
2018-02-02T17:57:58.448Z,14.97
2018-02-02T18:00:31.654Z,16.23
2018-02-02T18:03:03.967Z,14.93
2018-02-02T18:05:31.500Z,13.53
2018-02-02T18:07:59.036Z,14.50
2018-02-02T18:10:26.572Z,16.30
2018-02-02T18:12:54.102Z,14.20
2018-02-02T18:15:21.617Z,13.80
2018-02-02T18:17:49.135Z,13.80
2018-02-02T18:20:16.645Z,13.17
2018-02-02T18:22:44.195Z,12.77
2018-02-02T18:25:11.711Z,15.03
2018-02-02T18:27:39.241Z,12.40
2018-02-02T18:30:06.756Z,11.43
2018-02-02T18:32:35.052Z,10.80
2018-02-02T18:35:02.586Z,10.03
2018-02-02T18:37:30.117Z,10.20
2018-02-02T18:39:57.619Z,9.60
2018-02-02T18:42:25.170Z,10.27
2018-02-02T18:44:53.466Z,10.40
2018-02-02T18:47:21.739Z,10.43
2018-02-02T18:49:50.056Z,12.00
2018-02-02T18:52:17.563Z,13.00
2018-02-02T18:54:45.878Z,13.33
2018-02-02T18:57:13.388Z,11.50
2018-02-02T18:59:40.971Z,12.30
2018-02-02T19:02:09.257Z,13.20
2018-02-02T19:04:37.548Z,11.30
2018-02-02T19:07:05.059Z,13.13
2018-02-02T19:09:32.579Z,10.07
2018-02-02T19:12:00.083Z,13.47
2018-02-02T19:14:27.607Z,12.10
2018-02-02T19:16:55.106Z,11.63
2018-02-02T19:19:22.627Z,10.53
2018-02-02T19:21:50.136Z,11.30
2018-02-02T19:24:18.463Z,10.40
2018-02-02T19:26:45.985Z,10.50
2018-02-02T19:29:14.258Z,10.07
2018-02-02T19:31:42.551Z,10.13
2018-02-02T19:34:10.052Z,11.07
2018-02-02T19:36:37.575Z,11.20
2018-02-02T19:39:05.086Z,9.53
2018-02-02T19:41:32.608Z,9.90
2018-02-02T19:44:00.111Z,9.90
2018-02-02T19:46:27.638Z,11.37
2018-02-02T19:48:55.138Z,10.70
2018-02-02T19:51:22.662Z,10.63
2018-02-02T19:53:50.175Z,9.73
2018-02-02T19:56:18.472Z,10.87
2018-02-02T19:58:45.992Z,11.20
2018-02-02T20:01:13.521Z,11.27
2018-02-02T20:03:41.037Z,12.13
2018-02-02T20:06:09.345Z,10.50
2018-02-02T20:08:36.859Z,11.00
2018-02-02T20:11:05.179Z,10.97
2018-02-02T20:13:32.696Z,10.47
2018-02-02T20:16:00.976Z,11.33
2018-02-02T20:18:29.267Z,13.00
2018-02-02T20:20:57.553Z,10.87
2018-02-02T20:23:25.075Z,11.30
2018-02-02T20:25:52.579Z,11.17
2018-02-02T20:28:20.121Z,12.80
2018-02-02T20:30:48.395Z,11.03
2018-02-02T20:33:16.699Z,12.00
2018-02-02T20:35:44.210Z,11.63
2018-02-02T20:38:11.735Z,12.90
2018-02-02T20:40:39.239Z,14.47
2018-02-02T20:43:06.759Z,12.50
2018-02-02T20:45:35.001Z,11.37
2018-02-02T20:48:02.552Z,10.70
2018-02-02T20:50:30.846Z,9.40
2018-02-02T20:52:58.373Z,8.00
2018-02-02T20:55:25.970Z,9.00
2018-02-02T20:57:53.491Z,8.73
2018-02-02T21:00:20.999Z,7.47
2018-02-02T21:02:48.535Z,7.50
2018-02-02T21:05:16.804Z,8.27
2018-02-02T21:07:45.067Z,7.00
2018-02-02T21:10:12.587Z,7.17
2018-02-02T21:12:40.108Z,6.90
2018-02-02T21:15:08.401Z,7.47
2018-02-02T21:17:35.907Z,6.70
2018-02-02T21:20:03.426Z,6.60
2018-02-02T21:22:30.931Z,6.30
2018-02-02T21:24:58.450Z,6.20
2018-02-02T21:27:25.951Z,7.20
2018-02-02T21:29:53.471Z,6.17
2018-02-02T21:32:20.975Z,5.87
2018-02-02T21:34:48.487Z,6.00
2018-02-02T21:37:15.991Z,6.23
2018-02-02T21:39:43.516Z,7.30
2018-02-02T21:42:11.012Z,6.20
2018-02-02T21:44:38.536Z,6.53
2018-02-02T21:47:06.044Z,8.00
2018-02-02T21:49:33.559Z,7.00
2018-02-02T21:52:01.080Z,7.30
2018-02-02T21:54:29.356Z,6.90
2018-02-02T21:56:57.663Z,6.00
2018-02-02T21:59:25.164Z,6.50
2018-02-02T22:01:52.680Z,6.53
2018-02-02T22:04:20.178Z,7.03
2018-02-02T22:06:47.699Z,8.13
2018-02-02T22:09:15.207Z,7.83
2018-02-02T22:11:42.726Z,6.40
2018-02-02T22:14:10.240Z,6.77
2018-02-02T22:16:38.554Z,8.00
2018-02-02T22:19:06.083Z,6.97
2018-02-02T22:21:34.412Z,8.23
2018-02-02T22:24:01.923Z,7.73
2018-02-02T22:26:30.261Z,7.47
2018-02-02T22:28:57.768Z,7.73
2018-02-02T22:31:26.055Z,7.07
2018-02-02T22:33:54.323Z,6.60
2018-02-02T22:36:22.602Z,7.07
2018-02-02T22:38:50.875Z,6.90
2018-02-02T22:41:19.163Z,8.17
2018-02-02T22:43:47.438Z,6.77
2018-02-02T22:46:15.721Z,6.70
2018-02-02T22:48:44.008Z,5.87
2018-02-02T22:51:11.510Z,6.10
2018-02-02T22:53:39.027Z,7.03
2018-02-02T22:56:06.541Z,7.20
2018-02-02T22:58:34.068Z,6.67
2018-02-02T23:01:01.579Z,7.20
2018-02-02T23:03:29.095Z,8.40
2018-02-02T23:05:56.603Z,7.30
2018-02-02T23:08:24.887Z,7.53
2018-02-02T23:10:53.169Z,9.83
2018-02-02T23:13:21.455Z,9.43
2018-02-02T23:15:49.723Z,8.93
2018-02-02T23:18:18.003Z,9.00
2018-02-02T23:20:46.275Z,9.97
2018-02-02T23:23:14.668Z,10.57
2018-02-02T23:25:42.940Z,11.50
2018-02-02T23:28:11.232Z,9.53
2018-02-02T23:30:38.748Z,10.70
2018-02-02T23:33:06.284Z,10.53
2018-02-02T23:35:33.804Z,10.70
2018-02-02T23:38:01.331Z,11.17
2018-02-02T23:40:28.848Z,9.90
2018-02-02T23:42:56.376Z,10.10
2018-02-02T23:45:23.939Z,9.60
2018-02-02T23:47:51.469Z,10.10
2018-02-02T23:50:18.996Z,9.13
2018-02-02T23:52:46.517Z,10.27
2018-02-02T23:55:14.820Z,10.73
2018-02-02T23:57:42.331Z,10.57
